Wanborough, United Kingdom
Current Conditions -  °F | °C
As of 10:08 AM on Saturday 25 Oct 2014 (Local Time) from EGVA Reporting Station
Scattered Clouds Scattered Clouds  
Wind Chill: 52°   Ceiling: Unl
Heat Index: 52°   Visibility: 6mi
Dew Point: 46°   Wind: 12mph
Humidity: 82%   Direction: 240°WSW
Pressure: 30.04"   Gusts: NA
Location:  51.54°N, 1.7°W
Report Text: EGVA 250908Z AUTO 24010KT 9999 FEW031 SCT049 11/08 A3004 RMK AO2
Loading
Personal Weather Stations






























Interactive Weather Map
Tropical Storm Tracking
New forecast layout! Learn more

10-Day Weather Forecast

Advertisements
Track Severe Weather on mobile